sensor_id;sensor_type;location;lat;lon;timestamp;P1;durP1;ratioP1;P2;durP2;ratioP2
20705;SDS011;10514;49.468;11.044;2023-02-24T00:02:01;23.13;;;13.40;;
20705;SDS011;10514;49.468;11.044;2023-02-24T00:04:32;23.33;;;12.80;;
20705;SDS011;10514;49.468;11.044;2023-02-24T00:06:59;24.48;;;13.45;;
20705;SDS011;10514;49.468;11.044;2023-02-24T00:09:26;26.42;;;12.38;;
20705;SDS011;10514;49.468;11.044;2023-02-24T00:11:57;23.30;;;14.02;;
20705;SDS011;10514;49.468;11.044;2023-02-24T00:14:24;24.48;;;14.20;;
20705;SDS011;10514;49.468;11.044;2023-02-24T00:16:52;24.02;;;14.68;;
20705;SDS011;10514;49.468;11.044;2023-02-24T00:19:20;27.33;;;14.32;;
20705;SDS011;10514;49.468;11.044;2023-02-24T00:21:46;23.55;;;14.18;;
20705;SDS011;10514;49.468;11.044;2023-02-24T00:24:12;30.60;;;14.93;;
20705;SDS011;10514;49.468;11.044;2023-02-24T00:26:38;25.90;;;14.98;;
20705;SDS011;10514;49.468;11.044;2023-02-24T00:29:05;27.00;;;13.82;;
20705;SDS011;10514;49.468;11.044;2023-02-24T00:31:31;28.20;;;14.23;;
20705;SDS011;10514;49.468;11.044;2023-02-24T00:33:58;27.85;;;14.25;;
20705;SDS011;10514;49.468;11.044;2023-02-24T00:36:24;23.80;;;13.90;;
20705;SDS011;10514;49.468;11.044;2023-02-24T00:38:52;23.60;;;12.93;;
20705;SDS011;10514;49.468;11.044;2023-02-24T00:41:31;26.15;;;16.38;;
20705;SDS011;10514;49.468;11.044;2023-02-24T00:44:00;23.80;;;14.93;;
20705;SDS011;10514;49.468;11.044;2023-02-24T00:46:30;26.58;;;14.68;;
20705;SDS011;10514;49.468;11.044;2023-02-24T00:48:59;27.50;;;14.88;;
20705;SDS011;10514;49.468;11.044;2023-02-24T00:51:29;29.42;;;17.23;;
20705;SDS011;10514;49.468;11.044;2023-02-24T00:53:57;30.07;;;17.77;;
20705;SDS011;10514;49.468;11.044;2023-02-24T00:56:24;29.17;;;16.57;;
20705;SDS011;10514;49.468;11.044;2023-02-24T00:58:54;30.30;;;16.48;;
20705;SDS011;10514;49.468;11.044;2023-02-24T01:01:21;27.70;;;16.63;;
20705;SDS011;10514;49.468;11.044;2023-02-24T01:03:48;28.08;;;16.42;;
20705;SDS011;10514;49.468;11.044;2023-02-24T01:06:14;26.20;;;15.27;;
20705;SDS011;10514;49.468;11.044;2023-02-24T01:08:44;32.67;;;15.57;;
20705;SDS011;10514;49.468;11.044;2023-02-24T01:11:11;31.07;;;16.73;;
20705;SDS011;10514;49.468;11.044;2023-02-24T01:13:55;30.47;;;16.67;;
20705;SDS011;10514;49.468;11.044;2023-02-24T01:16:21;28.30;;;15.43;;
20705;SDS011;10514;49.468;11.044;2023-02-24T01:18:47;25.83;;;15.23;;
20705;SDS011;10514;49.468;11.044;2023-02-24T01:21:14;29.00;;;17.25;;
20705;SDS011;10514;49.468;11.044;2023-02-24T01:23:41;31.13;;;18.02;;
20705;SDS011;10514;49.468;11.044;2023-02-24T01:26:10;33.28;;;16.92;;
20705;SDS011;10514;49.468;11.044;2023-02-24T01:28:37;32.67;;;15.45;;
20705;SDS011;10514;49.468;11.044;2023-02-24T01:31:03;32.13;;;17.70;;
20705;SDS011;10514;49.468;11.044;2023-02-24T01:33:33;28.17;;;16.92;;
20705;SDS011;10514;49.468;11.044;2023-02-24T01:36:10;29.75;;;17.38;;
20705;SDS011;10514;49.468;11.044;2023-02-24T01:38:38;26.25;;;15.90;;
20705;SDS011;10514;49.468;11.044;2023-02-24T01:41:07;32.65;;;17.88;;
20705;SDS011;10514;49.468;11.044;2023-02-24T01:43:51;30.20;;;16.95;;
20705;SDS011;10514;49.468;11.044;2023-02-24T01:46:19;29.90;;;16.97;;
20705;SDS011;10514;49.468;11.044;2023-02-24T01:48:49;35.28;;;18.10;;
20705;SDS011;10514;49.468;11.044;2023-02-24T01:51:18;31.60;;;17.67;;
20705;SDS011;10514;49.468;11.044;2023-02-24T01:53:44;31.80;;;18.42;;
20705;SDS011;10514;49.468;11.044;2023-02-24T01:56:10;29.53;;;17.50;;
20705;SDS011;10514;49.468;11.044;2023-02-24T01:58:37;30.90;;;17.67;;
20705;SDS011;10514;49.468;11.044;2023-02-24T02:01:03;34.17;;;18.08;;
20705;SDS011;10514;49.468;11.044;2023-02-24T02:03:34;34.90;;;18.07;;
20705;SDS011;10514;49.468;11.044;2023-02-24T02:06:02;29.67;;;17.60;;
20705;SDS011;10514;49.468;11.044;2023-02-24T02:08:29;33.63;;;17.23;;
20705;SDS011;10514;49.468;11.044;2023-02-24T02:10:57;31.73;;;17.03;;
20705;SDS011;10514;49.468;11.044;2023-02-24T02:13:24;28.77;;;15.98;;
20705;SDS011;10514;49.468;11.044;2023-02-24T02:15:59;30.75;;;17.27;;
20705;SDS011;10514;49.468;11.044;2023-02-24T02:18:33;33.23;;;16.33;;
20705;SDS011;10514;49.468;11.044;2023-02-24T02:31:59;27.50;;;15.50;;
20705;SDS011;10514;49.468;11.044;2023-02-24T02:34:48;30.30;;;16.93;;
20705;SDS011;10514;49.468;11.044;2023-02-24T02:37:19;30.10;;;17.75;;
20705;SDS011;10514;49.468;11.044;2023-02-24T02:42:27;32.08;;;18.20;;
20705;SDS011;10514;49.468;11.044;2023-02-24T02:47:36;34.22;;;18.15;;
20705;SDS011;10514;49.468;11.044;2023-02-24T02:50:14;36.13;;;19.33;;
20705;SDS011;10514;49.468;11.044;2023-02-24T02:55:27;36.72;;;20.08;;
20705;SDS011;10514;49.468;11.044;2023-02-24T02:57:56;37.07;;;19.30;;
20705;SDS011;10514;49.468;11.044;2023-02-24T03:00:25;30.40;;;16.73;;
20705;SDS011;10514;49.468;11.044;2023-02-24T03:02:54;29.60;;;17.93;;
20705;SDS011;10514;49.468;11.044;2023-02-24T03:05:23;29.63;;;16.80;;
20705;SDS011;10514;49.468;11.044;2023-02-24T03:07:53;35.67;;;18.33;;
20705;SDS011;10514;49.468;11.044;2023-02-24T03:10:24;31.73;;;18.93;;
20705;SDS011;10514;49.468;11.044;2023-02-24T03:12:52;33.43;;;18.83;;
20705;SDS011;10514;49.468;11.044;2023-02-24T03:15:19;33.97;;;18.17;;
20705;SDS011;10514;49.468;11.044;2023-02-24T03:17:45;36.17;;;20.13;;
20705;SDS011;10514;49.468;11.044;2023-02-24T03:20:17;38.33;;;20.67;;
20705;SDS011;10514;49.468;11.044;2023-02-24T03:22:55;33.37;;;18.00;;
20705;SDS011;10514;49.468;11.044;2023-02-24T03:25:24;34.80;;;18.52;;
20705;SDS011;10514;49.468;11.044;2023-02-24T03:27:54;43.30;;;22.87;;
20705;SDS011;10514;49.468;11.044;2023-02-24T03:33:05;32.07;;;18.43;;
20705;SDS011;10514;49.468;11.044;2023-02-24T03:35:40;33.63;;;16.60;;
20705;SDS011;10514;49.468;11.044;2023-02-24T03:38:06;30.93;;;18.53;;
20705;SDS011;10514;49.468;11.044;2023-02-24T03:40:35;33.60;;;17.90;;
20705;SDS011;10514;49.468;11.044;2023-02-24T03:43:23;30.13;;;17.73;;
20705;SDS011;10514;49.468;11.044;2023-02-24T03:45:49;30.70;;;16.67;;
20705;SDS011;10514;49.468;11.044;2023-02-24T03:48:15;34.53;;;17.77;;
20705;SDS011;10514;49.468;11.044;2023-02-24T03:50:41;32.93;;;17.90;;
20705;SDS011;10514;49.468;11.044;2023-02-24T03:58:36;29.17;;;16.47;;
20705;SDS011;10514;49.468;11.044;2023-02-24T04:03:52;31.40;;;18.20;;
20705;SDS011;10514;49.468;11.044;2023-02-24T04:06:33;29.92;;;16.67;;
20705;SDS011;10514;49.468;11.044;2023-02-24T04:09:11;33.42;;;18.52;;
20705;SDS011;10514;49.468;11.044;2023-02-24T04:12:03;31.43;;;18.47;;
20705;SDS011;10514;49.468;11.044;2023-02-24T04:14:32;30.52;;;17.63;;
20705;SDS011;10514;49.468;11.044;2023-02-24T04:17:07;36.77;;;19.57;;
20705;SDS011;10514;49.468;11.044;2023-02-24T04:19:43;33.80;;;19.87;;
20705;SDS011;10514;49.468;11.044;2023-02-24T04:22:11;36.63;;;18.13;;
20705;SDS011;10514;49.468;11.044;2023-02-24T04:24:39;36.43;;;18.57;;
20705;SDS011;10514;49.468;11.044;2023-02-24T04:27:08;36.97;;;18.90;;
20705;SDS011;10514;49.468;11.044;2023-02-24T04:29:37;38.43;;;20.43;;
20705;SDS011;10514;49.468;11.044;2023-02-24T04:32:11;36.77;;;19.27;;
20705;SDS011;10514;49.468;11.044;2023-02-24T04:34:38;33.47;;;18.00;;
20705;SDS011;10514;49.468;11.044;2023-02-24T04:37:04;37.53;;;18.57;;
20705;SDS011;10514;49.468;11.044;2023-02-24T04:39:30;43.47;;;19.80;;
20705;SDS011;10514;49.468;11.044;2023-02-24T04:41:57;37.17;;;19.87;;
20705;SDS011;10514;49.468;11.044;2023-02-24T04:44:25;34.23;;;18.67;;
20705;SDS011;10514;49.468;11.044;2023-02-24T04:46:52;39.73;;;20.80;;
20705;SDS011;10514;49.468;11.044;2023-02-24T04:49:18;37.60;;;19.20;;
20705;SDS011;10514;49.468;11.044;2023-02-24T04:51:44;39.73;;;20.43;;
20705;SDS011;10514;49.468;11.044;2023-02-24T04:54:11;34.93;;;18.93;;
20705;SDS011;10514;49.468;11.044;2023-02-24T04:56:41;46.47;;;21.53;;
20705;SDS011;10514;49.468;11.044;2023-02-24T04:59:08;37.07;;;19.93;;
20705;SDS011;10514;49.468;11.044;2023-02-24T05:01:35;36.13;;;19.80;;
20705;SDS011;10514;49.468;11.044;2023-02-24T05:04:03;41.87;;;21.27;;
20705;SDS011;10514;49.468;11.044;2023-02-24T05:06:30;40.00;;;19.50;;
20705;SDS011;10514;49.468;11.044;2023-02-24T05:08:56;40.50;;;19.33;;
20705;SDS011;10514;49.468;11.044;2023-02-24T05:11:22;36.60;;;17.20;;
20705;SDS011;10514;49.468;11.044;2023-02-24T05:13:49;40.03;;;20.90;;
20705;SDS011;10514;49.468;11.044;2023-02-24T05:16:16;41.67;;;21.77;;
20705;SDS011;10514;49.468;11.044;2023-02-24T05:18:42;38.77;;;20.80;;
20705;SDS011;10514;49.468;11.044;2023-02-24T05:21:11;35.43;;;18.77;;
20705;SDS011;10514;49.468;11.044;2023-02-24T05:23:56;41.23;;;19.17;;
20705;SDS011;10514;49.468;11.044;2023-02-24T05:26:23;40.47;;;20.63;;
20705;SDS011;10514;49.468;11.044;2023-02-24T05:28:50;42.40;;;20.20;;
20705;SDS011;10514;49.468;11.044;2023-02-24T05:31:20;43.90;;;19.80;;
20705;SDS011;10514;49.468;11.044;2023-02-24T05:33:48;36.10;;;18.83;;
20705;SDS011;10514;49.468;11.044;2023-02-24T05:36:17;38.87;;;20.33;;
20705;SDS011;10514;49.468;11.044;2023-02-24T05:38:44;40.67;;;20.13;;
20705;SDS011;10514;49.468;11.044;2023-02-24T05:41:12;45.10;;;21.30;;
20705;SDS011;10514;49.468;11.044;2023-02-24T05:43:44;37.33;;;19.20;;
20705;SDS011;10514;49.468;11.044;2023-02-24T05:46:19;42.07;;;21.50;;
20705;SDS011;10514;49.468;11.044;2023-02-24T05:48:51;40.87;;;21.40;;
20705;SDS011;10514;49.468;11.044;2023-02-24T05:51:20;42.77;;;20.90;;
20705;SDS011;10514;49.468;11.044;2023-02-24T05:53:47;41.90;;;21.33;;
20705;SDS011;10514;49.468;11.044;2023-02-24T05:56:13;43.33;;;22.17;;
20705;SDS011;10514;49.468;11.044;2023-02-24T05:58:39;37.87;;;19.33;;
20705;SDS011;10514;49.468;11.044;2023-02-24T06:01:09;43.67;;;21.40;;
20705;SDS011;10514;49.468;11.044;2023-02-24T06:03:40;46.83;;;22.03;;
20705;SDS011;10514;49.468;11.044;2023-02-24T06:06:10;44.07;;;23.07;;
20705;SDS011;10514;49.468;11.044;2023-02-24T06:08:36;44.80;;;20.90;;
20705;SDS011;10514;49.468;11.044;2023-02-24T06:11:15;39.13;;;20.27;;
20705;SDS011;10514;49.468;11.044;2023-02-24T06:13:43;39.03;;;21.17;;
20705;SDS011;10514;49.468;11.044;2023-02-24T06:16:13;37.93;;;19.07;;
20705;SDS011;10514;49.468;11.044;2023-02-24T06:18:39;42.53;;;20.87;;
20705;SDS011;10514;49.468;11.044;2023-02-24T06:21:05;48.73;;;23.17;;
20705;SDS011;10514;49.468;11.044;2023-02-24T06:23:36;48.97;;;22.37;;
20705;SDS011;10514;49.468;11.044;2023-02-24T06:26:03;42.43;;;22.57;;
20705;SDS011;10514;49.468;11.044;2023-02-24T06:28:29;48.20;;;23.77;;
20705;SDS011;10514;49.468;11.044;2023-02-24T06:30:55;44.43;;;20.90;;
20705;SDS011;10514;49.468;11.044;2023-02-24T06:33:21;46.43;;;22.40;;
20705;SDS011;10514;49.468;11.044;2023-02-24T06:35:47;48.00;;;23.63;;
20705;SDS011;10514;49.468;11.044;2023-02-24T06:38:13;53.40;;;24.30;;
20705;SDS011;10514;49.468;11.044;2023-02-24T06:40:41;46.07;;;22.73;;
20705;SDS011;10514;49.468;11.044;2023-02-24T06:43:07;46.30;;;22.63;;
20705;SDS011;10514;49.468;11.044;2023-02-24T06:45:34;47.40;;;22.60;;
20705;SDS011;10514;49.468;11.044;2023-02-24T06:48:00;50.20;;;25.90;;
20705;SDS011;10514;49.468;11.044;2023-02-24T06:50:27;49.43;;;25.30;;
20705;SDS011;10514;49.468;11.044;2023-02-24T06:52:55;53.93;;;25.20;;
20705;SDS011;10514;49.468;11.044;2023-02-24T06:55:24;43.70;;;22.13;;
20705;SDS011;10514;49.468;11.044;2023-02-24T06:57:59;50.23;;;23.53;;
20705;SDS011;10514;49.468;11.044;2023-02-24T07:00:32;46.60;;;23.50;;
20705;SDS011;10514;49.468;11.044;2023-02-24T07:03:08;49.43;;;23.47;;
20705;SDS011;10514;49.468;11.044;2023-02-24T07:05:44;48.40;;;23.23;;
20705;SDS011;10514;49.468;11.044;2023-02-24T07:08:40;45.10;;;22.57;;
20705;SDS011;10514;49.468;11.044;2023-02-24T07:11:07;49.23;;;24.97;;
20705;SDS011;10514;49.468;11.044;2023-02-24T07:13:33;48.87;;;23.07;;
20705;SDS011;10514;49.468;11.044;2023-02-24T07:16:01;58.07;;;24.03;;
20705;SDS011;10514;49.468;11.044;2023-02-24T07:18:31;51.80;;;25.03;;
20705;SDS011;10514;49.468;11.044;2023-02-24T07:21:00;46.30;;;22.60;;
20705;SDS011;10514;49.468;11.044;2023-02-24T07:23:29;49.80;;;23.37;;
20705;SDS011;10514;49.468;11.044;2023-02-24T07:25:55;46.17;;;22.87;;
20705;SDS011;10514;49.468;11.044;2023-02-24T07:28:23;49.40;;;25.13;;
20705;SDS011;10514;49.468;11.044;2023-02-24T07:30:49;42.90;;;23.13;;
20705;SDS011;10514;49.468;11.044;2023-02-24T07:33:16;48.30;;;23.93;;
20705;SDS011;10514;49.468;11.044;2023-02-24T07:35:48;47.77;;;23.37;;
20705;SDS011;10514;49.468;11.044;2023-02-24T07:38:15;50.33;;;23.37;;
20705;SDS011;10514;49.468;11.044;2023-02-24T07:40:46;47.63;;;23.00;;
20705;SDS011;10514;49.468;11.044;2023-02-24T07:43:13;47.87;;;22.30;;
20705;SDS011;10514;49.468;11.044;2023-02-24T07:45:39;47.13;;;23.90;;
20705;SDS011;10514;49.468;11.044;2023-02-24T07:48:05;54.13;;;24.60;;
20705;SDS011;10514;49.468;11.044;2023-02-24T07:50:31;42.40;;;21.23;;
20705;SDS011;10514;49.468;11.044;2023-02-24T07:52:58;48.13;;;23.37;;
20705;SDS011;10514;49.468;11.044;2023-02-24T07:55:24;50.83;;;23.03;;
20705;SDS011;10514;49.468;11.044;2023-02-24T07:57:55;48.77;;;23.07;;
20705;SDS011;10514;49.468;11.044;2023-02-24T08:00:21;49.27;;;21.83;;
20705;SDS011;10514;49.468;11.044;2023-02-24T08:02:53;46.87;;;24.67;;
20705;SDS011;10514;49.468;11.044;2023-02-24T08:05:19;51.27;;;22.87;;
20705;SDS011;10514;49.468;11.044;2023-02-24T08:07:46;47.73;;;23.67;;
20705;SDS011;10514;49.468;11.044;2023-02-24T08:10:14;53.10;;;24.60;;
20705;SDS011;10514;49.468;11.044;2023-02-24T08:12:50;54.33;;;25.63;;
20705;SDS011;10514;49.468;11.044;2023-02-24T08:15:18;44.17;;;21.47;;
20705;SDS011;10514;49.468;11.044;2023-02-24T08:17:48;56.97;;;23.93;;
20705;SDS011;10514;49.468;11.044;2023-02-24T08:20:19;47.33;;;22.70;;
20705;SDS011;10514;49.468;11.044;2023-02-24T08:22:47;46.27;;;22.43;;
20705;SDS011;10514;49.468;11.044;2023-02-24T08:25:18;48.87;;;24.40;;
20705;SDS011;10514;49.468;11.044;2023-02-24T08:27:47;45.47;;;22.33;;
20705;SDS011;10514;49.468;11.044;2023-02-24T08:30:20;45.83;;;22.23;;
20705;SDS011;10514;49.468;11.044;2023-02-24T08:32:50;45.57;;;24.23;;
20705;SDS011;10514;49.468;11.044;2023-02-24T08:35:21;49.77;;;22.57;;
20705;SDS011;10514;49.468;11.044;2023-02-24T08:37:51;45.33;;;22.57;;
20705;SDS011;10514;49.468;11.044;2023-02-24T08:40:19;49.77;;;23.70;;
20705;SDS011;10514;49.468;11.044;2023-02-24T08:45:25;49.40;;;23.47;;
20705;SDS011;10514;49.468;11.044;2023-02-24T08:47:52;50.50;;;24.30;;
20705;SDS011;10514;49.468;11.044;2023-02-24T08:50:24;52.37;;;24.57;;
20705;SDS011;10514;49.468;11.044;2023-02-24T08:52:57;45.07;;;21.60;;
20705;SDS011;10514;49.468;11.044;2023-02-24T08:55:24;44.37;;;21.83;;
20705;SDS011;10514;49.468;11.044;2023-02-24T08:57:54;46.93;;;21.77;;
20705;SDS011;10514;49.468;11.044;2023-02-24T09:00:25;43.63;;;21.83;;
20705;SDS011;10514;49.468;11.044;2023-02-24T09:03:11;41.70;;;21.03;;
20705;SDS011;10514;49.468;11.044;2023-02-24T09:05:41;41.13;;;20.30;;
20705;SDS011;10514;49.468;11.044;2023-02-24T09:08:07;41.73;;;20.47;;
20705;SDS011;10514;49.468;11.044;2023-02-24T09:10:33;43.13;;;19.83;;
20705;SDS011;10514;49.468;11.044;2023-02-24T09:12:58;35.37;;;20.17;;
20705;SDS011;10514;49.468;11.044;2023-02-24T09:15:25;40.97;;;20.23;;
20705;SDS011;10514;49.468;11.044;2023-02-24T09:18:05;38.90;;;19.20;;
20705;SDS011;10514;49.468;11.044;2023-02-24T09:20:38;40.00;;;20.90;;
20705;SDS011;10514;49.468;11.044;2023-02-24T09:23:42;41.17;;;20.45;;
20705;SDS011;10514;49.468;11.044;2023-02-24T09:26:11;37.03;;;19.87;;
20705;SDS011;10514;49.468;11.044;2023-02-24T09:28:38;41.22;;;20.75;;
20705;SDS011;10514;49.468;11.044;2023-02-24T09:31:12;38.33;;;18.50;;
20705;SDS011;10514;49.468;11.044;2023-02-24T09:33:41;42.30;;;21.37;;
20705;SDS011;10514;49.468;11.044;2023-02-24T09:36:15;40.13;;;19.55;;
20705;SDS011;10514;49.468;11.044;2023-02-24T09:38:51;41.30;;;21.33;;
20705;SDS011;10514;49.468;11.044;2023-02-24T09:43:59;42.53;;;20.77;;
20705;SDS011;10514;49.468;11.044;2023-02-24T09:46:29;38.50;;;20.48;;
20705;SDS011;10514;49.468;11.044;2023-02-24T09:48:59;34.80;;;19.13;;
20705;SDS011;10514;49.468;11.044;2023-02-24T09:51:29;36.10;;;17.90;;
20705;SDS011;10514;49.468;11.044;2023-02-24T09:54:07;34.50;;;19.10;;
20705;SDS011;10514;49.468;11.044;2023-02-24T09:56:37;32.20;;;17.85;;
20705;SDS011;10514;49.468;11.044;2023-02-24T09:59:11;31.85;;;17.20;;
20705;SDS011;10514;49.468;11.044;2023-02-24T10:02:11;36.03;;;18.55;;
20705;SDS011;10514;49.468;11.044;2023-02-24T10:09:45;32.45;;;18.35;;
20705;SDS011;10514;49.468;11.044;2023-02-24T10:17:16;36.28;;;16.38;;
20705;SDS011;10514;49.468;11.044;2023-02-24T10:20:07;29.90;;;16.10;;
20705;SDS011;10514;49.468;11.044;2023-02-24T10:22:40;32.60;;;17.05;;
20705;SDS011;10514;49.468;11.044;2023-02-24T10:25:28;28.80;;;16.60;;
20705;SDS011;10514;49.468;11.044;2023-02-24T10:28:13;29.08;;;15.88;;
20705;SDS011;10514;49.468;11.044;2023-02-24T10:31:31;31.85;;;15.50;;
20705;SDS011;10514;49.468;11.044;2023-02-24T10:34:01;27.45;;;14.48;;
20705;SDS011;10514;49.468;11.044;2023-02-24T10:36:30;27.38;;;15.02;;
20705;SDS011;10514;49.468;11.044;2023-02-24T10:39:22;27.60;;;15.50;;
20705;SDS011;10514;49.468;11.044;2023-02-24T10:41:59;25.52;;;14.48;;
20705;SDS011;10514;49.468;11.044;2023-02-24T10:44:41;25.70;;;14.57;;
20705;SDS011;10514;49.468;11.044;2023-02-24T10:47:16;28.25;;;15.25;;
20705;SDS011;10514;49.468;11.044;2023-02-24T10:50:04;30.17;;;15.07;;
20705;SDS011;10514;49.468;11.044;2023-02-24T10:52:37;26.00;;;14.10;;
20705;SDS011;10514;49.468;11.044;2023-02-24T10:59:08;27.80;;;14.88;;
20705;SDS011;10514;49.468;11.044;2023-02-24T11:02:15;25.42;;;13.32;;
20705;SDS011;10514;49.468;11.044;2023-02-24T11:04:53;28.88;;;13.90;;
20705;SDS011;10514;49.468;11.044;2023-02-24T11:07:22;27.48;;;13.30;;
20705;SDS011;10514;49.468;11.044;2023-02-24T11:09:49;27.42;;;14.02;;
20705;SDS011;10514;49.468;11.044;2023-02-24T11:12:35;27.83;;;14.40;;
20705;SDS011;10514;49.468;11.044;2023-02-24T11:15:29;24.98;;;14.27;;
20705;SDS011;10514;49.468;11.044;2023-02-24T11:18:32;26.15;;;13.07;;
20705;SDS011;10514;49.468;11.044;2023-02-24T11:21:02;25.02;;;12.98;;
20705;SDS011;10514;49.468;11.044;2023-02-24T11:23:33;19.58;;;12.15;;
20705;SDS011;10514;49.468;11.044;2023-02-24T11:26:00;23.13;;;13.35;;
20705;SDS011;10514;49.468;11.044;2023-02-24T11:31:20;23.92;;;13.23;;
20705;SDS011;10514;49.468;11.044;2023-02-24T11:33:59;25.85;;;13.15;;
20705;SDS011;10514;49.468;11.044;2023-02-24T11:37:06;27.73;;;12.65;;
20705;SDS011;10514;49.468;11.044;2023-02-24T11:42:02;20.10;;;12.05;;
20705;SDS011;10514;49.468;11.044;2023-02-24T11:44:38;22.58;;;12.93;;
20705;SDS011;10514;49.468;11.044;2023-02-24T11:47:12;23.27;;;13.35;;
20705;SDS011;10514;49.468;11.044;2023-02-24T11:49:47;24.02;;;12.43;;
20705;SDS011;10514;49.468;11.044;2023-02-24T11:52:20;22.13;;;11.70;;
20705;SDS011;10514;49.468;11.044;2023-02-24T11:54:48;23.23;;;11.95;;
20705;SDS011;10514;49.468;11.044;2023-02-24T11:57:16;23.83;;;11.27;;
20705;SDS011;10514;49.468;11.044;2023-02-24T11:59:45;22.55;;;11.43;;
20705;SDS011;10514;49.468;11.044;2023-02-24T12:02:18;22.27;;;10.98;;
20705;SDS011;10514;49.468;11.044;2023-02-24T12:05:02;19.23;;;10.00;;
20705;SDS011;10514;49.468;11.044;2023-02-24T12:07:31;21.17;;;10.75;;
20705;SDS011;10514;49.468;11.044;2023-02-24T12:10:06;18.65;;;9.93;;
20705;SDS011;10514;49.468;11.044;2023-02-24T12:12:40;18.58;;;9.80;;
20705;SDS011;10514;49.468;11.044;2023-02-24T12:20:14;17.05;;;9.48;;
20705;SDS011;10514;49.468;11.044;2023-02-24T12:25:33;15.65;;;9.00;;
20705;SDS011;10514;49.468;11.044;2023-02-24T12:28:18;18.92;;;9.20;;
20705;SDS011;10514;49.468;11.044;2023-02-24T12:30:54;16.70;;;8.90;;
20705;SDS011;10514;49.468;11.044;2023-02-24T12:33:29;15.52;;;8.10;;
20705;SDS011;10514;49.468;11.044;2023-02-24T12:38:27;18.52;;;9.13;;
20705;SDS011;10514;49.468;11.044;2023-02-24T12:46:08;17.83;;;7.80;;
20705;SDS011;10514;49.468;11.044;2023-02-24T12:54:21;16.70;;;8.48;;
20705;SDS011;10514;49.468;11.044;2023-02-24T12:59:19;19.60;;;8.27;;
20705;SDS011;10514;49.468;11.044;2023-02-24T13:01:55;16.90;;;8.32;;
20705;SDS011;10514;49.468;11.044;2023-02-24T13:04:28;19.63;;;9.70;;
20705;SDS011;10514;49.468;11.044;2023-02-24T13:12:04;16.02;;;8.55;;
20705;SDS011;10514;49.468;11.044;2023-02-24T13:14:35;22.40;;;9.63;;
20705;SDS011;10514;49.468;11.044;2023-02-24T13:17:05;21.95;;;9.65;;
20705;SDS011;10514;49.468;11.044;2023-02-24T13:19:41;18.83;;;9.55;;
20705;SDS011;10514;49.468;11.044;2023-02-24T13:24:42;16.38;;;8.93;;
20705;SDS011;10514;49.468;11.044;2023-02-24T13:29:44;21.27;;;10.05;;
20705;SDS011;10514;49.468;11.044;2023-02-24T13:32:23;16.33;;;8.13;;
20705;SDS011;10514;49.468;11.044;2023-02-24T13:34:50;14.80;;;8.23;;
20705;SDS011;10514;49.468;11.044;2023-02-24T13:37:25;15.27;;;7.70;;
20705;SDS011;10514;49.468;11.044;2023-02-24T13:40:11;17.60;;;8.30;;
20705;SDS011;10514;49.468;11.044;2023-02-24T13:45:26;17.63;;;7.55;;
20705;SDS011;10514;49.468;11.044;2023-02-24T13:50:34;18.13;;;8.93;;
20705;SDS011;10514;49.468;11.044;2023-02-24T13:53:06;15.68;;;7.50;;
20705;SDS011;10514;49.468;11.044;2023-02-24T13:58:56;17.45;;;8.27;;
20705;SDS011;10514;49.468;11.044;2023-02-24T14:01:25;17.80;;;8.93;;
20705;SDS011;10514;49.468;11.044;2023-02-24T14:04:12;17.83;;;9.02;;
20705;SDS011;10514;49.468;11.044;2023-02-24T14:06:39;19.65;;;8.50;;
20705;SDS011;10514;49.468;11.044;2023-02-24T14:09:11;18.98;;;8.43;;
20705;SDS011;10514;49.468;11.044;2023-02-24T14:11:39;18.98;;;9.27;;
20705;SDS011;10514;49.468;11.044;2023-02-24T14:14:05;18.88;;;9.10;;
20705;SDS011;10514;49.468;11.044;2023-02-24T14:16:32;18.15;;;9.40;;
20705;SDS011;10514;49.468;11.044;2023-02-24T14:19:00;19.98;;;9.25;;
20705;SDS011;10514;49.468;11.044;2023-02-24T14:21:28;16.33;;;8.10;;
20705;SDS011;10514;49.468;11.044;2023-02-24T14:23:55;16.17;;;7.78;;
20705;SDS011;10514;49.468;11.044;2023-02-24T14:26:21;18.13;;;8.55;;
20705;SDS011;10514;49.468;11.044;2023-02-24T14:28:52;17.40;;;8.88;;
20705;SDS011;10514;49.468;11.044;2023-02-24T14:31:20;18.15;;;9.25;;
20705;SDS011;10514;49.468;11.044;2023-02-24T14:33:47;19.23;;;9.02;;
20705;SDS011;10514;49.468;11.044;2023-02-24T14:36:22;20.42;;;10.40;;
20705;SDS011;10514;49.468;11.044;2023-02-24T14:39:03;19.33;;;10.40;;
20705;SDS011;10514;49.468;11.044;2023-02-24T14:41:32;22.20;;;9.02;;
20705;SDS011;10514;49.468;11.044;2023-02-24T14:44:03;17.98;;;8.80;;
20705;SDS011;10514;49.468;11.044;2023-02-24T14:46:29;17.25;;;8.98;;
20705;SDS011;10514;49.468;11.044;2023-02-24T14:48:55;17.08;;;9.00;;
20705;SDS011;10514;49.468;11.044;2023-02-24T14:51:24;20.50;;;9.43;;
20705;SDS011;10514;49.468;11.044;2023-02-24T14:53:52;17.33;;;8.98;;
20705;SDS011;10514;49.468;11.044;2023-02-24T14:56:19;18.63;;;8.48;;
20705;SDS011;10514;49.468;11.044;2023-02-24T14:58:50;16.25;;;8.90;;
20705;SDS011;10514;49.468;11.044;2023-02-24T15:03:47;21.65;;;10.25;;
20705;SDS011;10514;49.468;11.044;2023-02-24T15:06:18;17.42;;;8.88;;
20705;SDS011;10514;49.468;11.044;2023-02-24T15:08:49;19.33;;;9.65;;
20705;SDS011;10514;49.468;11.044;2023-02-24T15:11:19;16.98;;;9.55;;
20705;SDS011;10514;49.468;11.044;2023-02-24T15:13:50;17.55;;;9.40;;
20705;SDS011;10514;49.468;11.044;2023-02-24T15:19:25;18.27;;;9.27;;
20705;SDS011;10514;49.468;11.044;2023-02-24T15:21:55;20.30;;;10.68;;
20705;SDS011;10514;49.468;11.044;2023-02-24T15:24:25;23.80;;;10.60;;
20705;SDS011;10514;49.468;11.044;2023-02-24T15:26:56;19.98;;;9.43;;
20705;SDS011;10514;49.468;11.044;2023-02-24T15:29:23;17.92;;;9.20;;
20705;SDS011;10514;49.468;11.044;2023-02-24T15:31:51;26.17;;;9.88;;
20705;SDS011;10514;49.468;11.044;2023-02-24T15:34:18;17.08;;;9.38;;
20705;SDS011;10514;49.468;11.044;2023-02-24T15:36:45;15.30;;;8.18;;
20705;SDS011;10514;49.468;11.044;2023-02-24T15:39:19;21.38;;;10.07;;
20705;SDS011;10514;49.468;11.044;2023-02-24T15:41:47;22.27;;;10.25;;
20705;SDS011;10514;49.468;11.044;2023-02-24T15:44:29;17.88;;;8.35;;
20705;SDS011;10514;49.468;11.044;2023-02-24T15:46:57;19.33;;;8.93;;
20705;SDS011;10514;49.468;11.044;2023-02-24T15:49:24;15.27;;;7.35;;
20705;SDS011;10514;49.468;11.044;2023-02-24T15:51:51;16.38;;;7.45;;
20705;SDS011;10514;49.468;11.044;2023-02-24T15:54:18;18.70;;;8.07;;
20705;SDS011;10514;49.468;11.044;2023-02-24T15:56:45;19.25;;;8.07;;
20705;SDS011;10514;49.468;11.044;2023-02-24T15:59:13;15.10;;;8.13;;
20705;SDS011;10514;49.468;11.044;2023-02-24T16:01:39;15.63;;;8.60;;
20705;SDS011;10514;49.468;11.044;2023-02-24T16:04:05;16.83;;;8.98;;
20705;SDS011;10514;49.468;11.044;2023-02-24T16:06:33;16.38;;;7.55;;
20705;SDS011;10514;49.468;11.044;2023-02-24T16:09:05;19.75;;;8.20;;
20705;SDS011;10514;49.468;11.044;2023-02-24T16:11:32;15.80;;;7.50;;
20705;SDS011;10514;49.468;11.044;2023-02-24T16:14:00;18.15;;;8.18;;
20705;SDS011;10514;49.468;11.044;2023-02-24T16:16:26;16.83;;;7.40;;